Sks Tagus — LADI5 — position and weather

sailwx.info

Track history (hours):
 
Tides and Currents Weather Stations Pressure Air Temp Water Temp Dewpoint Dewpoint Depression Visibility Wind Speed Wind Dir Waves Ship Positions

Sks Tagus

Last reported at 2014-May-26 19:49 UTC. Time now 2014-Jul-29 10:45 UTC.
Position N 31°41' E 121°10'.
Warning: this ship's position is months out of date.

Length 244 m; draft 11.4 m.

Type: Ship. MMSI: 259821000.

Date/timePositionNaut miles runAvg speedWind from/ knotsBaromVisibWave heightAir tempDewpointWater temp
2014-May-26 19:49N 31°41' E 121°10'0 0.0
2014-May-26 19:07N 31°41' E 121°10'5 0.4
2014-May-26 06:12N 31°38' E 121°15'2 9.5
2014-May-26 06:00N 31°37' E 121°17'9 9.6
2014-May-26 05:04N 31°31' E 121°24'5 9.8
2014-May-26 04:33N 31°27' E 121°29'3 6.2
2014-May-26 04:04N 31°25' E 121°31'4 7.4
2014-May-26 03:33N 31°23' E 121°35'510.3
2014-May-26 03:04N 31°21' E 121°40'5 8.4
2014-May-26 02:29N 31°19' E 121°45'3410.1
2014-May-25 23:06N 31°06' E 122°23'  
2014-May-23 15:13N 30°60' E 122°57'7110.7
2014-May-23 08:34N 29°50' E 122°44'1413.4
2014-May-23 07:31N 29°39' E 122°34'1111.4
2014-May-23 06:33N 29°41' E 122°22'8 8.0
2014-May-23 05:29N 29°44' E 122°12'0 0.0
2014-May-23 04:32N 29°44' E 122°12'0 0.0
2014-May-23 03:29N 29°44' E 122°12'0 0.0
2014-May-23 02:32N 29°44' E 122°12'0 0.0
2014-May-23 00:29N 29°44' E 122°12'0 0.0
2014-May-22 23:32N 29°44' E 122°12'0 0.0
2014-May-22 22:32N 29°44' E 122°12'0 0.0
2014-May-22 21:23N 29°44' E 122°12'0 0.0
2014-May-22 20:32N 29°44' E 122°12'0 0.0
2014-May-22 19:29N 29°44' E 122°12'0 0.0
2014-May-22 18:29N 29°44' E 122°12'0 0.0
2014-May-22 17:32N 29°44' E 122°12'0 0.0
2014-May-22 16:29N 29°44' E 122°12'0 0.0
2014-May-22 15:32N 29°44' E 122°12'0 0.0
2014-May-22 14:32N 29°44' E 122°12'0 0.0
2014-May-22 13:32N 29°44' E 122°12'0 0.0
2014-May-22 12:32N 29°44' E 122°12'0 0.0
2014-May-22 11:29N 29°44' E 122°12'0 0.0
2014-May-22 10:29N 29°44' E 122°12'0 0.0
2014-May-22 09:32N 29°44' E 122°12'0 0.0
2014-May-22 08:32N 29°44' E 122°12'0 0.0
2014-May-22 07:32N 29°44' E 122°12'0 0.0
2014-May-22 06:35N 29°44' E 122°12'0 0.0
2014-May-22 05:32N 29°44' E 122°12'0 0.0
2014-May-22 04:29N 29°44' E 122°12'0 0.0
2014-May-22 03:33N 29°44' E 122°12'0 0.0
2014-May-22 02:33N 29°44' E 122°12'0 0.0
2014-May-22 01:33N 29°44' E 122°12'0 0.0
2014-May-22 00:33N 29°44' E 122°12'0 0.0
2014-May-21 23:45N 29°44' E 122°12'0 0.0
2014-May-21 22:33N 29°44' E 122°12'0 0.0
2014-May-21 21:33N 29°44' E 122°12'0 0.0
2014-May-21 20:33N 29°44' E 122°12'0 0.0
2014-May-21 19:33N 29°44' E 122°12'0 0.0
2014-May-21 18:33N 29°44' E 122°12'0 0.0
2014-May-21 16:33N 29°44' E 122°12'0 0.0
2014-May-21 15:33N 29°44' E 122°12'0 0.0
2014-May-21 14:27N 29°44' E 122°12'0 0.0
2014-May-21 12:33N 29°44' E 122°12'0 0.0
2014-May-21 11:33N 29°44' E 122°12'0 0.0
2014-May-21 10:33N 29°44' E 122°12'0 0.0
2014-May-21 09:33N 29°44' E 122°12'0 0.0
2014-May-21 08:33N 29°44' E 122°12'3 2.8
2014-May-21 07:33N 29°43' E 122°16'7 6.8
2014-May-21 06:33N 29°42' E 122°23'0 0.1
2014-May-21 05:31N 29°42' E 122°23'0 0.1
2014-May-21 04:19N 29°42' E 122°23'0 0.2
2014-May-21 03:31N 29°42' E 122°23'0 0.1
2014-May-21 01:31N 29°42' E 122°23'0 0.0
2014-May-21 00:31N 29°42' E 122°23'0 0.0
2014-May-20 23:31N 29°42' E 122°23'0 0.0
2014-May-20 22:31N 29°42' E 122°23'0 0.1
2014-May-20 21:31N 29°42' E 122°24'0 0.1
2014-May-20 20:31N 29°42' E 122°24'0 0.1
2014-May-20 19:31N 29°42' E 122°23'0 0.1
2014-May-20 18:31N 29°42' E 122°23'0 0.0
2014-May-20 17:25N 29°42' E 122°23'0 0.1
2014-May-20 16:31N 29°42' E 122°23'0 0.0
2014-May-20 15:31N 29°42' E 122°23'0 0.1
2014-May-20 14:19N 29°42' E 122°23'0 0.1
2014-May-20 13:28N 29°42' E 122°23'0 0.0
2014-May-20 11:16N 29°42' E 122°23'0 0.0
2014-May-20 10:22N 29°42' E 122°23'0 0.0
2014-May-20 09:25N 29°42' E 122°23'0 0.1
2014-May-20 08:31N 29°42' E 122°24'0 0.1
2014-May-20 07:19N 29°42' E 122°23'0 0.1
2014-May-20 06:28N 29°42' E 122°23'0 0.0
2014-May-20 05:25N 29°42' E 122°23'0 0.0
2014-May-20 04:31N 29°42' E 122°23'0 0.1
2014-May-20 03:31N 29°42' E 122°23'0 0.2
2014-May-20 02:31N 29°42' E 122°23'0 0.1
2014-May-20 01:28N 29°42' E 122°23'0 0.0
2014-May-20 00:31N 29°42' E 122°23'0 0.0
2014-May-19 23:04N 29°42' E 122°24'0 0.0
2014-May-19 21:22N 29°42' E 122°24'0 0.0
2014-May-19 20:25N 29°42' E 122°24'0 0.1
2014-May-19 19:31N 29°42' E 122°24'0 0.1
2014-May-19 18:31N 29°42' E 122°23'0 0.1
2014-May-19 17:17N 29°42' E 122°23'0 0.1
2014-May-19 15:29N 29°42' E 122°23'0 0.0
2014-May-19 14:29N 29°42' E 122°23'0 0.1
2014-May-19 13:29N 29°42' E 122°23'0 0.2
2014-May-19 12:23N 29°42' E 122°23'0 0.0
2014-May-19 11:11N 29°42' E 122°23'0 0.0
2014-May-19 10:29N 29°42' E 122°23'0 0.0
2014-May-19 09:11N 29°42' E 122°24'0 0.1
2014-May-19 08:29N 29°42' E 122°23'0 0.1
2014-May-19 07:29N 29°42' E 122°24'0 0.1
2014-May-19 06:29N 29°42' E 122°24'0 0.1
2014-May-19 05:32N 29°42' E 122°23'0 0.0
2014-May-19 03:26N 29°42' E 122°23'0 0.1
2014-May-19 02:23N 29°42' E 122°23'0 0.1
2014-May-19 01:29N 29°42' E 122°23'0 0.2
2014-May-19 00:32N 29°42' E 122°23'0 0.0
2014-May-18 23:29N 29°42' E 122°23'0 0.0
2014-May-18 22:32N 29°42' E 122°23'0 0.0
2014-May-18 21:23N 29°42' E 122°23'0 0.1
2014-May-18 20:32N 29°42' E 122°24'0 0.1
2014-May-18 19:23N 29°42' E 122°24'0 0.1
2014-May-18 18:26N 29°42' E 122°24'0 0.1
2014-May-18 17:20N 29°42' E 122°23'0 0.1
2014-May-18 16:08N 29°42' E 122°23'0 0.1
2014-May-18 15:29N 29°42' E 122°23'0 0.1
2014-May-18 14:26N 29°42' E 122°23'0 0.0
2014-May-18 13:29N 29°42' E 122°23'0 0.1
2014-May-18 12:29N 29°42' E 122°23'0 0.2
2014-May-18 11:29N 29°42' E 122°23'0 0.1
2014-May-18 10:29N 29°42' E 122°23'0 0.0
2014-May-18 09:08N 29°42' E 122°24'0 0.0
2014-May-18 08:14N 29°42' E 122°24'0 0.0
2014-May-18 06:32N 29°42' E 122°24'0 0.1
2014-May-18 05:23N 29°42' E 122°24'0 0.1
2014-May-18 04:23N 29°42' E 122°23'0 0.1
2014-May-18 03:32N 29°42' E 122°23'0 0.1
2014-May-18 02:23N 29°42' E 122°23'0 0.1
2014-May-18 01:32N 29°42' E 122°23'0 0.2
2014-May-18 00:17N 29°42' E 122°23'0 0.2
2014-May-17 23:20N 29°42' E 122°23'0 0.0
2014-May-17 22:29N 29°42' E 122°23'0 0.0
2014-May-17 21:29N 29°42' E 122°23'0 0.1
2014-May-17 20:32N 29°42' E 122°24'0 0.1
2014-May-17 19:29N 29°42' E 122°23'0 0.1
2014-May-17 18:32N 29°42' E 122°23'0 0.1
2014-May-17 17:32N 29°42' E 122°23'0 0.1
2014-May-17 16:29N 29°42' E 122°23'0 0.1
2014-May-17 15:32N 29°42' E 122°23'0 0.0
2014-May-17 13:11N 29°42' E 122°23'0 0.1
2014-May-17 12:29N 29°42' E 122°23'0 0.2
2014-May-17 11:29N 29°42' E 122°23'1 0.3
2014-May-17 08:25N 29°41' E 122°22'0 0.1
2014-May-17 06:28N 29°41' E 122°23'0 0.1
2014-May-17 05:25N 29°42' E 122°23'0 0.1
2014-May-17 04:31N 29°42' E 122°23'0 0.1
2014-May-17 03:25N 29°42' E 122°22'0 0.0
2014-May-17 02:31N 29°42' E 122°22'0 0.1
2014-May-17 01:19N 29°42' E 122°22'0 0.2
2014-May-17 00:19N 29°41' E 122°22'0 0.1
2014-May-16 23:25N 29°41' E 122°22'0 0.1
2014-May-16 22:31N 29°41' E 122°23'0 0.0
2014-May-16 21:19N 29°41' E 122°23'0 0.0
2014-May-16 20:25N 29°41' E 122°23'  
Track history (hours):
 
Tides and Currents Weather Stations Pressure Air Temp Water Temp Dewpoint Dewpoint Depression Visibility Wind Speed Wind Dir Waves Ship Positions

Sks Tagus

Last reported at 2014-May-26 19:49 UTC. Time now 2014-Jul-29 10:45 UTC.
Position N 31°41' E 121°10'.
Warning: this ship's position is months out of date.

Length 244 m; draft 11.4 m.

Type: Ship. MMSI: 259821000.

Date/timePositionNaut miles runAvg speedWind from/ knotsBaromVisibWave heightAir tempDewpointWater temp
2014-May-26 19:49N 31°41' E 121°10'0 0.0
2014-May-26 19:07N 31°41' E 121°10'5 0.4
2014-May-26 06:12N 31°38' E 121°15'2 9.5
2014-May-26 06:00N 31°37' E 121°17'9 9.6
2014-May-26 05:04N 31°31' E 121°24'5 9.8
2014-May-26 04:33N 31°27' E 121°29'3 6.2
2014-May-26 04:04N 31°25' E 121°31'4 7.4
2014-May-26 03:33N 31°23' E 121°35'510.3
2014-May-26 03:04N 31°21' E 121°40'5 8.4
2014-May-26 02:29N 31°19' E 121°45'3410.1
2014-May-25 23:06N 31°06' E 122°23'  
2014-May-23 15:13N 30°60' E 122°57'7110.7
2014-May-23 08:34N 29°50' E 122°44'1413.4
2014-May-23 07:31N 29°39' E 122°34'1111.4
2014-May-23 06:33N 29°41' E 122°22'8 8.0
2014-May-23 05:29N 29°44' E 122°12'0 0.0
2014-May-23 04:32N 29°44' E 122°12'0 0.0
2014-May-23 03:29N 29°44' E 122°12'0 0.0
2014-May-23 02:32N 29°44' E 122°12'0 0.0
2014-May-23 00:29N 29°44' E 122°12'0 0.0
2014-May-22 23:32N 29°44' E 122°12'0 0.0
2014-May-22 22:32N 29°44' E 122°12'0 0.0
2014-May-22 21:23N 29°44' E 122°12'0 0.0
2014-May-22 20:32N 29°44' E 122°12'0 0.0
2014-May-22 19:29N 29°44' E 122°12'0 0.0
2014-May-22 18:29N 29°44' E 122°12'0 0.0
2014-May-22 17:32N 29°44' E 122°12'0 0.0
2014-May-22 16:29N 29°44' E 122°12'0 0.0
2014-May-22 15:32N 29°44' E 122°12'0 0.0
2014-May-22 14:32N 29°44' E 122°12'0 0.0
2014-May-22 13:32N 29°44' E 122°12'0 0.0
2014-May-22 12:32N 29°44' E 122°12'0 0.0
2014-May-22 11:29N 29°44' E 122°12'0 0.0
2014-May-22 10:29N 29°44' E 122°12'0 0.0
2014-May-22 09:32N 29°44' E 122°12'0 0.0
2014-May-22 08:32N 29°44' E 122°12'0 0.0
2014-May-22 07:32N 29°44' E 122°12'0 0.0
2014-May-22 06:35N 29°44' E 122°12'0 0.0
2014-May-22 05:32N 29°44' E 122°12'0 0.0
2014-May-22 04:29N 29°44' E 122°12'0 0.0
2014-May-22 03:33N 29°44' E 122°12'0 0.0
2014-May-22 02:33N 29°44' E 122°12'0 0.0
2014-May-22 01:33N 29°44' E 122°12'0 0.0
2014-May-22 00:33N 29°44' E 122°12'0 0.0
2014-May-21 23:45N 29°44' E 122°12'0 0.0
2014-May-21 22:33N 29°44' E 122°12'0 0.0
2014-May-21 21:33N 29°44' E 122°12'0 0.0
2014-May-21 20:33N 29°44' E 122°12'0 0.0
2014-May-21 19:33N 29°44' E 122°12'0 0.0
2014-May-21 18:33N 29°44' E 122°12'0 0.0
2014-May-21 16:33N 29°44' E 122°12'0 0.0
2014-May-21 15:33N 29°44' E 122°12'0 0.0
2014-May-21 14:27N 29°44' E 122°12'0 0.0
2014-May-21 12:33N 29°44' E 122°12'0 0.0
2014-May-21 11:33N 29°44' E 122°12'0 0.0
2014-May-21 10:33N 29°44' E 122°12'0 0.0
2014-May-21 09:33N 29°44' E 122°12'0 0.0
2014-May-21 08:33N 29°44' E 122°12'3 2.8
2014-May-21 07:33N 29°43' E 122°16'7 6.8
2014-May-21 06:33N 29°42' E 122°23'0 0.1
2014-May-21 05:31N 29°42' E 122°23'0 0.1
2014-May-21 04:19N 29°42' E 122°23'0 0.2
2014-May-21 03:31N 29°42' E 122°23'0 0.1
2014-May-21 01:31N 29°42' E 122°23'0 0.0
2014-May-21 00:31N 29°42' E 122°23'0 0.0
2014-May-20 23:31N 29°42' E 122°23'0 0.0
2014-May-20 22:31N 29°42' E 122°23'0 0.1
2014-May-20 21:31N 29°42' E 122°24'0 0.1
2014-May-20 20:31N 29°42' E 122°24'0 0.1
2014-May-20 19:31N 29°42' E 122°23'0 0.1
2014-May-20 18:31N 29°42' E 122°23'0 0.0
2014-May-20 17:25N 29°42' E 122°23'0 0.1
2014-May-20 16:31N 29°42' E 122°23'0 0.0
2014-May-20 15:31N 29°42' E 122°23'0 0.1
2014-May-20 14:19N 29°42' E 122°23'0 0.1
2014-May-20 13:28N 29°42' E 122°23'0 0.0
2014-May-20 11:16N 29°42' E 122°23'0 0.0
2014-May-20 10:22N 29°42' E 122°23'0 0.0
2014-May-20 09:25N 29°42' E 122°23'0 0.1
2014-May-20 08:31N 29°42' E 122°24'0 0.1
2014-May-20 07:19N 29°42' E 122°23'0 0.1
2014-May-20 06:28N 29°42' E 122°23'0 0.0
2014-May-20 05:25N 29°42' E 122°23'0 0.0
2014-May-20 04:31N 29°42' E 122°23'0 0.1
2014-May-20 03:31N 29°42' E 122°23'0 0.2
2014-May-20 02:31N 29°42' E 122°23'0 0.1
2014-May-20 01:28N 29°42' E 122°23'0 0.0
2014-May-20 00:31N 29°42' E 122°23'0 0.0
2014-May-19 23:04N 29°42' E 122°24'0 0.0
2014-May-19 21:22N 29°42' E 122°24'0 0.0
2014-May-19 20:25N 29°42' E 122°24'0 0.1
2014-May-19 19:31N 29°42' E 122°24'0 0.1
2014-May-19 18:31N 29°42' E 122°23'0 0.1
2014-May-19 17:17N 29°42' E 122°23'0 0.1
2014-May-19 15:29N 29°42' E 122°23'0 0.0
2014-May-19 14:29N 29°42' E 122°23'0 0.1
2014-May-19 13:29N 29°42' E 122°23'0 0.2
2014-May-19 12:23N 29°42' E 122°23'0 0.0
2014-May-19 11:11N 29°42' E 122°23'0 0.0
2014-May-19 10:29N 29°42' E 122°23'0 0.0
2014-May-19 09:11N 29°42' E 122°24'0 0.1
2014-May-19 08:29N 29°42' E 122°23'0 0.1
2014-May-19 07:29N 29°42' E 122°24'0 0.1
2014-May-19 06:29N 29°42' E 122°24'0 0.1
2014-May-19 05:32N 29°42' E 122°23'0 0.0
2014-May-19 03:26N 29°42' E 122°23'0 0.1
2014-May-19 02:23N 29°42' E 122°23'0 0.1
2014-May-19 01:29N 29°42' E 122°23'0 0.2
2014-May-19 00:32N 29°42' E 122°23'0 0.0
2014-May-18 23:29N 29°42' E 122°23'0 0.0
2014-May-18 22:32N 29°42' E 122°23'0 0.0
2014-May-18 21:23N 29°42' E 122°23'0 0.1
2014-May-18 20:32N 29°42' E 122°24'0 0.1
2014-May-18 19:23N 29°42' E 122°24'0 0.1
2014-May-18 18:26N 29°42' E 122°24'0 0.1
2014-May-18 17:20N 29°42' E 122°23'0 0.1
2014-May-18 16:08N 29°42' E 122°23'0 0.1
2014-May-18 15:29N 29°42' E 122°23'0 0.1
2014-May-18 14:26N 29°42' E 122°23'0 0.0
2014-May-18 13:29N 29°42' E 122°23'0 0.1
2014-May-18 12:29N 29°42' E 122°23'0 0.2
2014-May-18 11:29N 29°42' E 122°23'0 0.1
2014-May-18 10:29N 29°42' E 122°23'0 0.0
2014-May-18 09:08N 29°42' E 122°24'0 0.0
2014-May-18 08:14N 29°42' E 122°24'0 0.0
2014-May-18 06:32N 29°42' E 122°24'0 0.1
2014-May-18 05:23N 29°42' E 122°24'0 0.1
2014-May-18 04:23N 29°42' E 122°23'0 0.1
2014-May-18 03:32N 29°42' E 122°23'0 0.1
2014-May-18 02:23N 29°42' E 122°23'0 0.1
2014-May-18 01:32N 29°42' E 122°23'0 0.2
2014-May-18 00:17N 29°42' E 122°23'0 0.2
2014-May-17 23:20N 29°42' E 122°23'0 0.0
2014-May-17 22:29N 29°42' E 122°23'0 0.0
2014-May-17 21:29N 29°42' E 122°23'0 0.1
2014-May-17 20:32N 29°42' E 122°24'0 0.1
2014-May-17 19:29N 29°42' E 122°23'0 0.1
2014-May-17 18:32N 29°42' E 122°23'0 0.1
2014-May-17 17:32N 29°42' E 122°23'0 0.1
2014-May-17 16:29N 29°42' E 122°23'0 0.1
2014-May-17 15:32N 29°42' E 122°23'0 0.0
2014-May-17 13:11N 29°42' E 122°23'0 0.1
2014-May-17 12:29N 29°42' E 122°23'0 0.2
2014-May-17 11:29N 29°42' E 122°23'1 0.3
2014-May-17 08:25N 29°41' E 122°22'0 0.1
2014-May-17 06:28N 29°41' E 122°23'0 0.1
2014-May-17 05:25N 29°42' E 122°23'0 0.1
2014-May-17 04:31N 29°42' E 122°23'0 0.1
2014-May-17 03:25N 29°42' E 122°22'0 0.0
2014-May-17 02:31N 29°42' E 122°22'0 0.1
2014-May-17 01:19N 29°42' E 122°22'0 0.2
2014-May-17 00:19N 29°41' E 122°22'0 0.1
2014-May-16 23:25N 29°41' E 122°22'0 0.1
2014-May-16 22:31N 29°41' E 122°23'0 0.0
2014-May-16 21:19N 29°41' E 122°23'0 0.0
2014-May-16 20:25N 29°41' E 122°23'  

Dump ship's entire track history